Latest Weather Observations for Parkes Airport

IDN60801

Issued at 1:23 am EDT Wednesday 1 February 2023 (issued every 10 minutes, with the page automatically refreshed every 10 minutes)

About weather observations | Map of weather stations | Latest weather observations for NSW | Other Formats
Station Details ID: 065068 Name: PARKES AIRPORT AWS Lat: -33.13 Lon: 148.24 Height: 323.3 m
Data from the previous 72 hours. | See also: Recent months at Parkes Airport
Date/Time
EDT
Temp
°C
App
Temp
°C
Dew
Point
°C
Rel
Hum
%
Delta-T
°C
Wind Press
QNH
hPa
Press
MSL
hPa
Rain since
9am
mm
Dir  Spd
km/h
Gust
km/h
Spd
kts
Gust
kts
01/01:00am 18.2 18.2 13.7 75 2.6 SW 6 7 3 4 1003.7 1001.8 0.0
01/12:30am 19.3 18.0 12.6 65 3.8 SSW 11 13 6 7 1003.8 1001.9 0.0
01/12:00am 19.2 19.5 13.4 69 3.4 SSW 4 9 2 5 1003.9 1002.0 0.0
 
Date/Time
EDT
Temp
°C
App
Temp
°C
Dew
Point
°C
Rel
Hum
%
Delta-T
°C
Wind Press
QNH
hPa
Press
MSL
hPa
Rain since
9am
mm
Dir  Spd
km/h
Gust
km/h
Spd
kts
Gust
kts
31/11:30pm 20.0 19.8 13.7 67 3.7 SW 7 9 4 5 1004.1 1002.2 0.0
31/11:00pm 21.2 20.6 13.6 62 4.5 SSW 9 11 5 6 1004.1 1002.2 0.0
31/10:30pm 21.8 21.2 13.4 59 4.9 SSW 9 11 5 6 1004.3 1002.3 0.0
31/10:00pm 23.4 23.0 14.1 56 5.6 SSW 9 11 5 6 1004.1 1002.2 0.0
31/09:30pm 23.2 22.1 14.2 57 5.4 SSW 13 13 7 7 1003.8 1001.9 0.0
31/09:00pm 24.6 23.2 13.5 50 6.6 SW 13 17 7 9 1003.5 1001.6 0.0
31/08:30pm 26.3 24.0 13.1 44 7.8 SW 17 20 9 11 1003.2 1001.3 0.0
31/08:00pm 27.8 25.4 12.6 39 9.0 SW 17 20 9 11 1002.9 1001.0 0.0
31/07:30pm 29.0 25.1 12.0 35 10.0 SW 24 32 13 17 1002.6 1000.7 0.0
31/07:00pm 29.8 26.2 11.8 33 10.7 SSW 22 28 12 15 1002.2 1000.2 0.0
31/06:30pm 30.2 26.3 12.1 32 10.7 SSW 24 32 13 17 1001.9 999.9 0.0
31/06:00pm 30.6 27.8 12.5 33 10.9 SSW 19 28 10 15 1001.8 999.8 0.0
31/05:30pm 29.1 26.3 13.3 37 9.5 SSW 20 30 11 16 1002.0 1000.0 0.0
31/05:00pm 30.0 27.0 13.7 37 9.9 SSW 22 33 12 18 1002.2 1000.2 0.0
31/04:30pm 30.4 28.9 14.1 37 10.0 S 15 24 8 13 1002.6 1000.7 0.0
31/04:00pm 30.6 28.9 15.8 40 9.3 SSW 19 24 10 13 1003.0 1001.1 0.0
31/03:30pm 30.2 27.5 14.7 39 9.6 SSW 22 28 12 15 1003.3 1001.4 0.0
31/03:00pm 30.2 28.2 15.5 41 9.2 S 20 30 11 16 1003.7 1001.8 0.0
31/02:30pm 28.8 27.1 15.7 45 8.2 S 19 32 10 17 1003.8 1001.9 0.0
31/02:00pm 29.5 28.2 16.7 46 8.1 SSW 19 30 10 16 1004.1 1002.2 0.0
31/01:30pm 27.9 27.4 15.9 48 7.5 SSE 13 22 7 12 1004.4 1002.4 0.0
31/01:00pm 28.7 28.6 17.9 52 7.0 SW 15 30 8 16 1004.7 1002.7 0.0
31/12:30pm 28.3 27.2 17.2 51 7.1 SSW 19 30 10 16 1005.0 1003.0 0.0
31/12:00pm 27.2 27.8 17.7 56 6.1 SW 11 17 6 9 1005.2 1003.3 0.0
31/11:30am 26.4 26.9 16.6 55 6.1 SE 9 15 5 8 1005.7 1003.8 0.0
31/11:00am 25.4 27.2 17.3 61 5.1 SSW 4 11 2 6 1006.0 1004.1 0.0
31/10:30am 24.7 26.2 16.7 61 5.0 ENE 4 9 2 5 1006.3 1004.4 0.0
31/10:00am 25.0 26.1 18.0 65 4.5 NE 9 13 5 7 1006.5 1004.6 0.0
31/09:30am 23.5 23.6 17.5 69 3.8 NE 13 17 7 9 1006.5 1004.6 0.0
31/09:00am 22.4 22.8 18.2 77 2.7 ENE 13 17 7 9 1006.6 1004.7 3.0
31/08:30am 21.7 21.2 17.7 78 2.5 E 17 20 9 11 1006.7 1004.8 3.0
31/08:00am 20.8 21.1 18.0 84 1.8 E 13 17 7 9 1006.3 1004.4 3.0
31/07:30am 19.4 20.9 18.1 92 0.8 E 7 11 4 6 1006.2 1004.3 3.0
31/07:00am 18.5 20.6 18.0 97 0.3 S 4 9 2 5 1006.0 1004.1 3.0
31/06:30am 17.9 20.3 16.9 94 0.6 CALM 0 0 0 0 1005.7 1003.8 3.0
31/06:00am 18.4 19.4 17.8 96 0.4 E 9 13 5 7 1005.5 1003.6 3.0
31/05:30am 18.3 21.2 18.1 99 0.1 CALM 0 6 0 3 1005.5 1003.6 3.0
31/05:12am 18.1 20.1 17.9 99 0.1 SSW 4 7 2 4 1005.4 1003.5 3.0
31/05:01am 17.9 19.3 17.7 99 0.1 SSW 7 9 4 5 1005.4 1003.5 3.0
31/05:00am 17.9 19.3 17.7 99 0.1 SSW 7 9 4 5 1005.4 1003.5 3.0
31/04:35am 17.6 19.4 17.4 99 0.1 S 4 9 2 5 1005.4 1003.5 3.0
31/04:30am 17.5 20.0 17.2 98 0.2 CALM 0 6 0 3 1005.4 1003.5 3.0
31/04:25am 17.4 19.8 16.9 97 0.3 CALM 0 6 0 3 1005.4 1003.5 3.0
31/04:00am 17.6 18.8 17.3 98 0.2 ENE 7 9 4 5 1005.5 1003.6 3.0
31/03:31am 17.8 20.4 17.5 98 0.2 CALM 0 0 0 0 1005.6 1003.7 3.0
31/03:30am 17.8 20.3 17.3 97 0.3 CALM 0 0 0 0 1005.6 1003.7 3.0
31/03:10am 17.9 20.5 17.4 97 0.3 CALM 0 0 0 0 1005.7 1003.8 3.0
31/03:00am 17.9 20.4 17.3 96 0.4 CALM 0 0 0 0 1005.7 1003.8 3.0
31/02:30am 18.2 20.8 17.4 95 0.5 CALM 0 0 0 0 1005.9 1004.0 3.0
31/02:00am 18.2 20.7 17.2 94 0.6 CALM 0 7 0 4 1006.2 1004.3 3.0
31/01:30am 19.1 22.0 18.3 95 0.5 CALM 0 0 0 0 1006.6 1004.7 3.0
31/01:00am 18.9 21.7 17.9 94 0.6 CALM 0 0 0 0 1007.0 1005.1 3.0
31/12:30am 19.2 22.2 18.4 95 0.5 CALM 0 0 0 0 1007.4 1005.5 3.0
31/12:00am 19.5 21.3 18.7 95 0.5 ESE 7 7 4 4 1007.4 1005.5 3.0
 
Date/Time
EDT
Temp
°C
App
Temp
°C
Dew
Point
°C
Rel
Hum
%
Delta-T
°C
Wind Press
QNH
hPa
Press
MSL
hPa
Rain since
9am
mm
Dir  Spd
km/h
Gust
km/h
Spd
kts
Gust
kts
30/11:30pm 19.8 21.7 19.0 95 0.5 ESE 7 9 4 5 1007.8 1005.8 3.0
30/11:00pm 20.2 22.4 19.2 94 0.6 ESE 6 7 3 4 1008.0 1006.1 3.0
30/10:30pm 20.7 22.9 19.5 93 0.8 SE 7 9 4 5 1008.0 1006.1 3.0
30/10:00pm 21.2 24.8 19.7 91 1.0 CALM 0 0 0 0 1007.9 1005.9 3.0
30/09:30pm 21.7 24.8 19.6 88 1.4 S 2 6 1 3 1007.8 1005.8 3.0
30/09:00pm 22.2 24.0 19.6 85 1.7 SSE 9 13 5 7 1007.8 1005.8 3.0
30/08:30pm 22.7 24.5 20.4 87 1.5 SSE 11 13 6 7 1007.7 1005.7 3.0
30/08:00pm 22.5 23.7 20.6 89 1.3 SSW 15 19 8 10 1007.6 1005.6 3.0
30/07:30pm 24.2 24.0 19.3 74 3.2 SSW 19 24 10 13 1007.1 1005.2 3.0
30/07:00pm 25.0 23.3 18.2 66 4.4 SSW 24 30 13 16 1006.8 1004.9 3.0
30/06:30pm 24.9 23.8 18.6 68 4.0 SSW 22 26 12 14 1006.8 1004.9 3.0
30/06:00pm 25.8 26.2 19.0 66 4.4 SW 15 19 8 10 1006.5 1004.6 3.0
30/05:30pm 26.1 27.1 19.5 67 4.3 NW 13 19 7 10 1006.7 1004.8 3.0
30/05:00pm 26.0 25.9 18.7 64 4.7 WNW 17 24 9 13 1006.9 1005.0 3.0
30/04:30pm 25.7 26.1 19.1 67 4.3 NNW 15 20 8 11 1007.1 1005.2 3.0
30/04:00pm 25.6 25.2 19.0 67 4.3 NNW 19 24 10 13 1007.6 1005.6 3.0
30/03:40pm 26.0 26.3 20.3 71 3.8 NNW 19 26 10 14 1007.9 1005.9 3.0
30/03:30pm 25.7 25.8 20.3 72 3.6 N 20 26 11 14 1008.2 1006.3 3.0
30/03:13pm 25.7 25.8 20.0 71 3.7 NNW 19 24 10 13 1008.3 1006.4 3.0
30/03:00pm 25.4 25.8 20.6 75 3.2 N 19 26 10 14 1008.5 1006.6 2.8
30/02:30pm 23.4 24.6 20.0 81 2.2 N 13 17 7 9 1009.0 1007.1 2.8
30/02:00pm 22.4 23.3 19.2 82 2.1 NNW 13 19 7 10 1009.4 1007.5 2.8
30/01:51pm 22.5 23.2 19.7 84 1.8 N 15 22 8 12 1009.4 1007.5 2.8
30/01:30pm 22.3 22.0 19.5 84 1.8 N 20 26 11 14 1009.6 1007.7 2.8
30/01:00pm 22.5 23.0 20.8 90 1.1 N 19 24 10 13 1009.8 1007.9 2.8
30/12:30pm 22.3 23.6 20.9 92 0.9 N 15 20 8 11 1010.2 1008.3 2.8
30/12:20pm 22.2 24.4 21.2 94 0.7 NE 11 17 6 9 1010.2 1008.3 2.8
30/12:00pm 21.7 23.8 20.2 91 1.0 ENE 9 11 5 6 1010.6 1008.7 2.8
30/11:30am 21.2 23.1 19.7 91 1.0 E 9 13 5 7 1010.8 1008.9 2.4
30/11:00am 21.3 23.0 20.1 93 0.8 ENE 11 15 6 8 1011.1 1009.2 1.6
30/10:30am 21.5 22.9 20.3 93 0.8 ENE 13 17 7 9 1011.0 1009.1 0.6
30/10:00am 21.4 24.3 20.6 95 0.5 ENE 6 7 3 4 1011.3 1009.4 0.2
30/09:30am 20.8 23.2 20.0 95 0.5 ENE 7 9 4 5 1011.6 1009.7 0.0
30/09:00am 20.7 22.8 20.2 97 0.3 ENE 9 13 5 7 1011.7 1009.8 12.4
30/08:30am 20.1 22.0 19.8 98 0.2 ESE 9 11 5 6 1011.8 1009.9 12.2
30/08:00am 19.8 22.0 19.3 97 0.3 ENE 6 7 3 4 1012.2 1010.3 11.4
30/07:30am 19.9 23.2 19.2 96 0.4 CALM 0 0 0 0 1012.2 1010.3 10.2
30/07:00am 19.9 20.8 19.2 96 0.4 NNW 13 17 7 9 1012.3 1010.4 9.2
30/06:30am 20.1 23.3 18.8 92 0.8 CALM 0 0 0 0 1011.3 1009.4 7.8
30/06:00am 20.3 21.7 18.6 90 1.1 E 9 11 5 6 1010.5 1008.6 5.8
30/05:30am 20.4 20.9 18.3 88 1.3 ENE 13 17 7 9 1010.2 1008.3 5.2
30/05:00am 20.9 21.3 18.1 84 1.8 ENE 13 17 7 9 1010.0 1008.1 4.4
30/04:30am 21.1 21.3 17.7 81 2.1 E 13 17 7 9 1009.9 1008.0 4.2
30/04:00am 21.6 22.5 17.6 78 2.5 ENE 9 13 5 7 1009.8 1007.9 4.0
30/03:30am 21.5 21.8 17.9 80 2.3 NE 13 19 7 10 1009.9 1008.0 4.0
30/03:00am 21.6 21.9 18.0 80 2.3 ENE 13 20 7 11 1009.7 1007.8 3.8
30/02:30am 21.1 20.6 18.7 86 1.5 E 19 24 10 13 1009.9 1008.0 3.8
30/02:00am 21.1 19.8 19.0 88 1.3 E 24 35 13 19 1010.8 1008.9 3.8
30/01:30am 20.6 22.8 19.6 94 0.6 E 7 11 4 6 1012.4 1010.5 3.8
30/01:00am 20.8 21.9 19.6 93 0.8 E 13 17 7 9 1013.2 1011.3 3.8
30/12:30am 20.8 22.3 19.8 94 0.6 SE 11 13 6 7 1013.9 1012.1 3.8
30/12:00am 21.0 24.2 19.8 93 0.8 S 2 7 1 4 1015.1 1013.2 3.6
 
Date/Time
EDT
Temp
°C
App
Temp
°C
Dew
Point
°C
Rel
Hum
%
Delta-T
°C
Wind Press
QNH
hPa
Press
MSL
hPa
Rain since
9am
mm
Dir  Spd
km/h
Gust
km/h
Spd
kts
Gust
kts
29/11:30pm 21.5 22.6 19.6 89 1.2 S 13 17 7 9 1015.3 1013.4 2.6
29/11:00pm 21.8 22.5 19.7 88 1.4 SSW 15 19 8 10 1015.0 1013.1 2.2
29/10:30pm 22.0 23.7 20.1 89 1.2 S 11 20 6 11 1014.6 1012.7 2.0
29/10:00pm 22.0 23.2 19.9 88 1.4 SSE 13 22 7 12 1014.3 1012.4 2.0
29/09:30pm 22.0 21.2 20.1 89 1.2 SSE 24 32 13 17 1014.2 1012.3 2.0
29/09:00pm 21.8 20.8 19.7 88 1.4 S 24 32 13 17 1014.5 1012.6 1.6
29/08:30pm 22.4 22.3 19.9 86 1.6 SW 20 26 11 14 1014.9 1013.0 0.6
29/08:05pm 22.6 18.9 19.2 81 2.2 SSW 37 56 20 30 1013.5 1011.7 0.4
29/08:00pm 22.8 17.8 18.8 78 2.6 SW 43 56 23 30 1013.3 1011.4 0.4
29/07:50pm 24.3 20.8 16.6 62 4.8 SW 30 48 16 26 1013.0 1011.1 0.2
29/07:30pm 29.7 27.4 14.7 40 9.2 S 20 26 11 14 1011.7 1009.8 0.2
29/07:00pm 30.4 28.3 13.7 36 10.2 SE 17 24 9 13 1010.9 1009.0 0.2
29/06:30pm 31.0 28.6 13.7 34 10.5 SE 19 26 10 14 1010.4 1008.5 0.2
29/06:00pm 31.6 30.0 12.9 32 11.3 S 13 17 7 9 1010.4 1008.5 0.2
29/05:30pm 31.8 30.5 12.6 31 11.5 SSW 11 15 6 8 1010.6 1008.7 0.2
29/05:00pm 32.8 33.2 12.4 29 12.3 NW 2 7 1 4 1010.8 1008.9 0.2
29/04:30pm 33.2 34.1 12.8 29 12.4 CALM 0 2 0 1 1010.9 1009.0 0.2
29/04:00pm 32.4 31.5 12.6 30 11.9 NNW 9 19 5 10 1011.2 1009.3 0.2
29/03:30pm 32.4 32.0 13.1 31 11.7 NNE 7 13 4 7 1011.6 1009.7 0.2
29/03:00pm 32.2 32.1 13.4 32 11.5 NE 6 15 3 8 1012.0 1010.1 0.2
29/02:30pm 31.7 30.4 14.8 36 10.5 ENE 15 22 8 12 1012.4 1010.5 0.2
29/02:00pm 30.7 28.8 15.2 39 9.7 ENE 19 20 10 11 1012.9 1011.0 0.0
29/01:30pm 29.4 27.8 15.1 41 8.9 ENE 17 22 9 12 1013.2 1011.3 0.0
29/01:00pm 29.2 29.1 15.0 42 8.8 ENE 9 19 5 10 1013.7 1011.9 0.0
29/12:30pm 28.9 28.2 14.3 40 8.9 E 11 20 6 11 1014.2 1012.3 0.0
29/12:00pm 27.6 27.5 16.9 52 6.8 SSE 13 17 7 9 1014.8 1012.9 0.0
29/11:30am 25.7 26.3 18.6 65 4.6 S 13 17 7 9 1015.3 1013.4 0.0
29/11:00am 23.9 20.1 16.7 64 4.5 SW 32 41 17 22 1015.1 1013.2 0.0
29/10:57am 24.4 20.7 15.9 59 5.2 SW 30 41 16 22 1015.2 1013.3 0.0
29/10:30am 29.7 27.3 13.9 38 9.6 N 19 26 10 14 1013.4 1011.5 0.0
29/10:00am 29.5 26.9 13.7 38 9.6 N 20 28 11 15 1012.9 1011.0 0.0
29/09:30am 29.2 27.2 13.8 39 9.3 NNE 17 26 9 14 1012.8 1010.9 0.0
29/09:00am 29.0 26.3 13.6 38 9.3 NNE 20 28 11 15 1012.5 1010.6 0.0
29/08:30am 29.6 27.2 13.8 38 9.6 NNE 19 26 10 14 1012.6 1010.7 0.0
29/08:00am 27.8 25.1 13.0 40 8.8 N 19 26 10 14 1012.5 1010.6 0.0
29/07:30am 27.8 24.9 13.0 40 8.8 NNE 20 30 11 16 1012.2 1010.3 0.0
29/07:00am 25.6 24.9 14.4 50 6.8 NE 11 13 6 7 1012.0 1010.1 0.0
29/06:30am 25.5 24.7 14.0 49 6.9 NNE 11 15 6 8 1011.5 1009.6 0.0
29/06:00am 25.5 24.4 14.3 50 6.8 NE 13 17 7 9 1011.0 1009.1 0.0
29/05:30am 24.6 23.4 14.1 52 6.3 NNE 13 15 7 8 1010.5 1008.6 0.0
29/05:00am 25.5 24.7 14.0 49 6.9 NNE 11 15 6 8 1010.2 1008.3 0.0
29/04:30am 25.7 24.6 14.2 49 6.9 N 13 15 7 8 1010.2 1008.3 0.0
29/04:00am 25.2 24.7 14.9 52 6.3 N 11 13 6 7 1010.0 1008.1 0.0
29/03:30am 25.0 24.5 15.0 53 6.1 NNE 11 13 6 7 1009.9 1008.0 0.0
29/03:00am 25.2 25.6 15.2 54 6.1 NE 7 9 4 5 1010.1 1008.2 0.0
29/02:30am 24.5 24.7 14.6 54 6.0 NNE 7 9 4 5 1010.0 1008.1 0.0
29/02:00am 24.3 24.2 15.0 56 5.6 NNE 9 9 5 5 1010.1 1008.2 0.0
29/01:30am 24.0 24.3 14.4 55 5.8 NNE 6 9 3 5 1010.2 1008.3 0.0

Other formats

Comma delimited format used in spreadsheet applications
http://www.bom.gov.au/fwo/IDN60801/IDN60801.95717.axf

JavaScript Object Notation format (JSON) in row-major order
http://www.bom.gov.au/fwo/IDN60801/IDN60801.95717.json

Data quality

Most of these data are generated automatically and are frequently updated. Quality checks on data are not normally performed. It is possible for incorrect values to appear. Refer to information at About Latest Weather Observations and please check the disclaimer before using these data.